createdAt,value
2022-09-17T00:01:32.977Z,98160.00
2022-09-17T00:04:04.914Z,98153.00
2022-09-17T00:06:35.792Z,98157.00
2022-09-17T00:09:06.858Z,98160.00
2022-09-17T00:11:41.537Z,98163.00
2022-09-17T00:14:17.355Z,98164.00
2022-09-17T00:16:48.004Z,98161.00
2022-09-17T00:19:23.412Z,98163.00
2022-09-17T00:21:51.885Z,98170.00
2022-09-17T00:24:20.980Z,98166.00
2022-09-17T00:26:50.168Z,98168.00
2022-09-17T00:29:17.612Z,98157.00
2022-09-17T00:31:44.937Z,98165.00
2022-09-17T00:34:12.516Z,98172.00
2022-09-17T00:36:40.940Z,98164.00
2022-09-17T00:39:12.963Z,98166.00
2022-09-17T00:41:40.537Z,98169.00
2022-09-17T00:44:52.980Z,98177.00
2022-09-17T00:48:02.132Z,98179.00
2022-09-17T00:50:42.364Z,98174.00
2022-09-17T00:53:18.596Z,98181.00
2022-09-17T00:56:32.064Z,98191.00
2022-09-17T00:59:03.669Z,98191.00
2022-09-17T01:01:32.889Z,98188.00
2022-09-17T01:04:00.429Z,98195.00
2022-09-17T01:07:22.204Z,98193.00
2022-09-17T01:10:31.313Z,98195.00
2022-09-17T01:13:49.019Z,98207.00
2022-09-17T01:16:55.499Z,98199.00
2022-09-17T01:20:42.534Z,98195.00
2022-09-17T01:24:02.926Z,98207.00
2022-09-17T01:27:15.708Z,98210.00
2022-09-17T01:30:28.455Z,98209.00
2022-09-17T01:33:56.569Z,98204.00
2022-09-17T01:37:12.027Z,98213.00
2022-09-17T01:40:01.703Z,98215.00
2022-09-17T01:43:23.247Z,98217.00
2022-09-17T01:46:12.638Z,98219.00
2022-09-17T01:48:48.022Z,98217.00
2022-09-17T01:51:23.221Z,98222.00
2022-09-17T01:54:21.937Z,98223.00
2022-09-17T01:57:44.827Z,98218.00
2022-09-17T02:00:16.145Z,98219.00
2022-09-17T02:03:30.585Z,98233.00
2022-09-17T02:06:15.660Z,98226.00
2022-09-17T02:09:05.989Z,98239.00
2022-09-17T02:11:37.132Z,98238.00
2022-09-17T02:14:17.359Z,98246.00
2022-09-17T02:16:58.937Z,98237.00
2022-09-17T02:19:34.861Z,98237.00
2022-09-17T02:22:52.623Z,98236.00
2022-09-17T02:25:38.867Z,98244.00
2022-09-17T02:28:27.986Z,98239.00
2022-09-17T02:30:55.430Z,98251.00
2022-09-17T02:33:23.856Z,98248.00
2022-09-17T02:35:51.245Z,98252.00
2022-09-17T02:38:31.590Z,98248.00
2022-09-17T02:41:25.993Z,98254.00
2022-09-17T02:45:08.052Z,98244.00
2022-09-17T02:48:03.015Z,98243.00
2022-09-17T02:51:41.112Z,98239.00
2022-09-17T02:55:18.971Z,98234.00
2022-09-17T02:58:28.637Z,98235.00
2022-09-17T03:01:04.952Z,98240.00
2022-09-17T03:03:43.694Z,98249.00
2022-09-17T03:06:10.976Z,98253.00
2022-09-17T03:08:42.860Z,98242.00
2022-09-17T03:11:12.991Z,98238.00
2022-09-17T03:13:40.801Z,98217.00
2022-09-17T03:16:09.402Z,98241.00
2022-09-17T03:18:37.029Z,98243.00
2022-09-17T03:21:04.760Z,98236.00
2022-09-17T03:23:32.903Z,98234.00
2022-09-17T03:26:00.769Z,98234.00
2022-09-17T03:28:28.061Z,98240.00
2022-09-17T03:30:55.527Z,98236.00
2022-09-17T03:33:22.884Z,98230.00
2022-09-17T03:35:50.184Z,98232.00
2022-09-17T03:38:18.420Z,98236.00
2022-09-17T03:40:56.228Z,98230.00
2022-09-17T03:43:23.483Z,98235.00
2022-09-17T03:45:50.737Z,98239.00
2022-09-17T03:48:18.033Z,98232.00
2022-09-17T03:50:46.197Z,98226.00
2022-09-17T03:53:13.765Z,98231.00
2022-09-17T03:55:41.657Z,98229.00
2022-09-17T03:58:09.329Z,98234.00
2022-09-17T04:00:39.744Z,98231.00
2022-09-17T04:03:07.687Z,98234.00
2022-09-17T04:05:34.961Z,98244.00
2022-09-17T04:08:02.726Z,98251.00
2022-09-17T04:10:29.977Z,98253.00
2022-09-17T04:12:57.262Z,98267.00
2022-09-17T04:15:24.520Z,98262.00
2022-09-17T04:17:57.780Z,98266.00
2022-09-17T04:20:26.609Z,98280.00
2022-09-17T04:22:54.413Z,98270.00
2022-09-17T04:25:22.604Z,98282.00
2022-09-17T04:27:50.132Z,98280.00
2022-09-17T04:30:18.177Z,98284.00
2022-09-17T04:32:46.758Z,98285.00
2022-09-17T04:35:14.345Z,98280.00
2022-09-17T04:37:41.633Z,98282.00
2022-09-17T04:40:10.420Z,98279.00
2022-09-17T04:42:37.793Z,98291.00
2022-09-17T04:45:05.949Z,98284.00
2022-09-17T04:47:33.220Z,98291.00
2022-09-17T04:50:00.481Z,98281.00
2022-09-17T04:52:30.963Z,98292.00
2022-09-17T04:54:58.399Z,98283.00
2022-09-17T04:57:26.202Z,98291.00
2022-09-17T04:59:53.584Z,98289.00
2022-09-17T05:02:20.973Z,98291.00
2022-09-17T05:04:48.400Z,98296.00
2022-09-17T05:07:15.666Z,98298.00
2022-09-17T05:09:43.068Z,98307.00
2022-09-17T05:12:10.388Z,98308.00
2022-09-17T05:14:37.675Z,98309.00
2022-09-17T05:17:04.957Z,98312.00
2022-09-17T05:19:32.213Z,98312.00
2022-09-17T05:21:59.483Z,98316.00
2022-09-17T05:24:27.359Z,98316.00
2022-09-17T05:26:54.732Z,98320.00
2022-09-17T05:29:22.048Z,98321.00
2022-09-17T05:31:49.377Z,98317.00
2022-09-17T05:34:16.706Z,98324.00
2022-09-17T05:36:43.984Z,98317.00
2022-09-17T05:39:13.065Z,98319.00
2022-09-17T05:41:40.323Z,98317.00
2022-09-17T05:44:07.611Z,98321.00
2022-09-17T05:46:34.898Z,98318.00
2022-09-17T05:49:02.200Z,98324.00
2022-09-17T05:51:29.508Z,98324.00
2022-09-17T05:53:58.336Z,98332.00
2022-09-17T05:56:25.657Z,98326.00
2022-09-17T05:58:57.208Z,98304.00
2022-09-17T06:01:25.045Z,98322.00
2022-09-17T06:03:52.556Z,98328.00
2022-09-17T06:06:19.888Z,98338.00
2022-09-17T06:08:47.161Z,98337.00
2022-09-17T06:11:14.421Z,98335.00
2022-09-17T06:13:43.547Z,98334.00
2022-09-17T06:16:10.938Z,98338.00
2022-09-17T06:18:38.231Z,98350.00
2022-09-17T06:21:05.720Z,98366.00
2022-09-17T06:23:37.673Z,98372.00
2022-09-17T06:26:06.661Z,98379.00
2022-09-17T06:28:37.899Z,98385.00
2022-09-17T06:31:11.327Z,98387.00
2022-09-17T06:33:41.516Z,98380.00
2022-09-17T06:36:14.557Z,98392.00
2022-09-17T06:38:42.843Z,98385.00
2022-09-17T06:41:10.340Z,98386.00
2022-09-17T06:43:38.823Z,98399.00
2022-09-17T06:46:08.962Z,98387.00
2022-09-17T06:48:38.305Z,98395.00
2022-09-17T06:51:10.511Z,98409.00
2022-09-17T06:53:39.273Z,98402.00
2022-09-17T06:56:10.130Z,98401.00
2022-09-17T06:58:38.472Z,98407.00
2022-09-17T07:01:06.491Z,98403.00
2022-09-17T07:03:34.601Z,98402.00
2022-09-17T07:06:01.964Z,98398.00
2022-09-17T07:08:29.407Z,98400.00
2022-09-17T07:10:58.477Z,98403.00
2022-09-17T07:13:26.555Z,98412.00
2022-09-17T07:16:00.943Z,98401.00
2022-09-17T07:18:29.288Z,98405.00
2022-09-17T07:21:04.190Z,98404.00
2022-09-17T07:23:36.685Z,98409.00
2022-09-17T07:26:14.478Z,98412.00
2022-09-17T07:28:43.693Z,98426.00
2022-09-17T07:31:16.377Z,98424.00
2022-09-17T07:33:45.584Z,98423.00
2022-09-17T07:36:17.947Z,98418.00
2022-09-17T07:38:45.686Z,98421.00
2022-09-17T07:41:18.432Z,98423.00
2022-09-17T07:43:47.868Z,98432.00
2022-09-17T07:46:19.908Z,98429.00
2022-09-17T07:48:49.248Z,98429.00
2022-09-17T07:51:24.763Z,98441.00
2022-09-17T07:53:59.294Z,98438.00
2022-09-17T07:56:28.740Z,98440.00
2022-09-17T07:58:56.279Z,98426.00
2022-09-17T08:01:24.099Z,98432.00
2022-09-17T08:03:54.572Z,98439.00
2022-09-17T08:06:26.931Z,98434.00
2022-09-17T08:08:57.051Z,98421.00
2022-09-17T08:14:16.831Z,98438.00
2022-09-17T08:16:46.411Z,98427.00
2022-09-17T08:19:13.872Z,98450.00
2022-09-17T08:21:41.125Z,98442.00
2022-09-17T08:24:08.734Z,98442.00
2022-09-17T08:26:36.091Z,98443.00
2022-09-17T08:29:03.751Z,98450.00
2022-09-17T08:31:33.273Z,98447.00
2022-09-17T08:34:01.000Z,98453.00
2022-09-17T08:36:28.654Z,98451.00
2022-09-17T08:38:56.787Z,98448.00
2022-09-17T08:42:20.604Z,98456.00
2022-09-17T08:44:51.850Z,98453.00
2022-09-17T08:47:37.888Z,98459.00
2022-09-17T08:50:26.616Z,98451.00
2022-09-17T08:53:33.929Z,98452.00
2022-09-17T08:56:22.184Z,98455.00
2022-09-17T08:59:33.872Z,98462.00
2022-09-17T09:03:03.840Z,98463.00
2022-09-17T09:05:53.339Z,98473.00
2022-09-17T09:09:15.836Z,98482.00
2022-09-17T09:11:44.533Z,98465.00
2022-09-17T09:14:33.458Z,98477.00
2022-09-17T09:17:10.529Z,98477.00
2022-09-17T09:19:46.539Z,98475.00
2022-09-17T09:22:49.859Z,98470.00
2022-09-17T09:25:23.342Z,98466.00
2022-09-17T09:28:52.183Z,98468.00
2022-09-17T09:32:15.575Z,98477.00
2022-09-17T09:34:44.953Z,98472.00
2022-09-17T09:37:31.376Z,98485.00
2022-09-17T09:40:32.087Z,98478.00
2022-09-17T09:43:11.757Z,98475.00
2022-09-17T09:46:19.509Z,98480.00
2022-09-17T09:49:49.532Z,98477.00
2022-09-17T09:52:59.776Z,98485.00
2022-09-17T09:55:52.565Z,98479.00
2022-09-17T09:58:46.099Z,98482.00
2022-09-17T10:01:20.748Z,98477.00
2022-09-17T10:03:52.603Z,98487.00
2022-09-17T10:06:20.712Z,98490.00
2022-09-17T10:08:51.072Z,98509.00
2022-09-17T10:11:29.004Z,98498.00
2022-09-17T10:14:24.634Z,98508.00
2022-09-17T10:17:23.846Z,98490.00
2022-09-17T10:20:00.050Z,98494.00
2022-09-17T10:22:47.703Z,98483.00
2022-09-17T10:25:34.784Z,98481.00
2022-09-17T10:28:20.953Z,98478.00
2022-09-17T10:31:10.302Z,98477.00
2022-09-17T10:34:04.533Z,98480.00
2022-09-17T10:36:46.110Z,98478.00
2022-09-17T10:39:34.217Z,98477.00
2022-09-17T10:42:15.699Z,98476.00
2022-09-17T10:45:00.975Z,98471.00
2022-09-17T10:47:51.165Z,98483.00
2022-09-17T10:50:36.600Z,98474.00
2022-09-17T10:53:14.652Z,98467.00
2022-09-17T10:56:23.843Z,98491.00
2022-09-17T10:59:24.637Z,98480.00
2022-09-17T11:03:11.017Z,98466.00
2022-09-17T11:06:50.022Z,98487.00
2022-09-17T11:10:06.928Z,98474.00
2022-09-17T11:13:26.315Z,98467.00
2022-09-17T11:16:32.881Z,98469.00
2022-09-17T11:19:37.463Z,98465.00
2022-09-17T11:22:51.917Z,98450.00
2022-09-17T11:26:06.597Z,98453.00
2022-09-17T11:30:03.224Z,98479.00
2022-09-17T11:33:38.340Z,98452.00
2022-09-17T11:36:25.361Z,98468.00
2022-09-17T11:39:00.793Z,98463.00
2022-09-17T11:41:40.253Z,98468.00
2022-09-17T11:44:30.923Z,98460.00
2022-09-17T11:47:15.072Z,98477.00
2022-09-17T11:50:23.959Z,98478.00
2022-09-17T11:53:19.520Z,98476.00
2022-09-17T11:56:03.270Z,98476.00
2022-09-17T11:59:11.695Z,98476.00
2022-09-17T12:02:23.367Z,98487.00
2022-09-17T12:05:49.011Z,98484.00
2022-09-17T12:08:25.156Z,98475.00
2022-09-17T12:11:42.191Z,98473.00
2022-09-17T12:14:49.959Z,98475.00
2022-09-17T12:17:48.035Z,98490.00
2022-09-17T12:20:40.123Z,98474.00
2022-09-17T12:23:18.602Z,98477.00
2022-09-17T12:26:50.767Z,98479.00
2022-09-17T12:30:29.656Z,98483.00
2022-09-17T12:33:41.778Z,98476.00
2022-09-17T12:36:52.733Z,98483.00
2022-09-17T12:40:26.352Z,98458.00
2022-09-17T12:42:59.722Z,98446.00
2022-09-17T12:46:13.354Z,98497.00
2022-09-17T12:49:29.870Z,98471.00
2022-09-17T12:52:30.493Z,98469.00
2022-09-17T12:56:00.739Z,98487.00
2022-09-17T12:58:57.829Z,98477.00
2022-09-17T13:02:15.465Z,98475.00
2022-09-17T13:05:36.296Z,98489.00
2022-09-17T13:08:40.558Z,98492.00
2022-09-17T13:12:04.655Z,98489.00
2022-09-17T13:15:22.794Z,98440.00
2022-09-17T13:18:26.596Z,98481.00
2022-09-17T13:21:55.015Z,98464.00
2022-09-17T13:24:31.025Z,98446.00
2022-09-17T13:27:03.832Z,98450.00
2022-09-17T13:29:46.438Z,98461.00
2022-09-17T13:32:35.499Z,98468.00
2022-09-17T13:35:14.607Z,98448.00
2022-09-17T13:37:56.101Z,98440.00
2022-09-17T13:40:33.013Z,98442.00
2022-09-17T13:43:12.079Z,98443.00
2022-09-17T13:46:00.944Z,98438.00
2022-09-17T13:48:34.785Z,98451.00
2022-09-17T13:51:29.968Z,98465.00
2022-09-17T13:54:08.405Z,98450.00
2022-09-17T13:57:07.066Z,98462.00
2022-09-17T13:59:37.604Z,98471.00
2022-09-17T14:02:13.807Z,98456.00
2022-09-17T14:04:41.666Z,98464.00
2022-09-17T14:07:24.012Z,98476.00
2022-09-17T14:09:57.437Z,98467.00
2022-09-17T14:12:50.741Z,98474.00
2022-09-17T14:15:41.101Z,98462.00
2022-09-17T14:18:34.435Z,98462.00
2022-09-17T14:21:27.644Z,98471.00
2022-09-17T14:24:13.872Z,98458.00
2022-09-17T14:26:57.648Z,98469.00
2022-09-17T14:30:10.897Z,98479.00
2022-09-17T14:33:01.571Z,98467.00
2022-09-17T14:35:43.343Z,98453.00
2022-09-17T14:38:44.857Z,98452.00
2022-09-17T14:41:11.936Z,98457.00
2022-09-17T14:43:55.776Z,98448.00
2022-09-17T14:46:38.144Z,98476.00
2022-09-17T14:49:37.004Z,98477.00
2022-09-17T14:52:32.639Z,98484.00
2022-09-17T14:55:24.058Z,98478.00
2022-09-17T14:57:58.911Z,98478.00
2022-09-17T15:00:38.098Z,98447.00
2022-09-17T15:03:06.159Z,98458.00
2022-09-17T15:05:38.661Z,98480.00
2022-09-17T15:08:16.910Z,98466.00
2022-09-17T15:11:10.959Z,98469.00
2022-09-17T15:13:53.017Z,98464.00
2022-09-17T15:16:27.351Z,98465.00
2022-09-17T15:19:03.619Z,98475.00
2022-09-17T15:21:49.437Z,98473.00
2022-09-17T15:24:57.260Z,98470.00
2022-09-17T15:27:46.252Z,98474.00
2022-09-17T15:30:22.051Z,98481.00
2022-09-17T15:33:01.023Z,98480.00
2022-09-17T15:35:32.543Z,98481.00
2022-09-17T15:38:22.813Z,98488.00
2022-09-17T15:40:51.769Z,98481.00
2022-09-17T15:43:38.657Z,98487.00
2022-09-17T15:46:31.172Z,98493.00
2022-09-17T15:49:03.532Z,98493.00
2022-09-17T15:51:37.373Z,98507.00
2022-09-17T15:54:33.262Z,98505.00
2022-09-17T15:57:01.565Z,98499.00
2022-09-17T15:59:33.784Z,98499.00
2022-09-17T16:02:02.741Z,98500.00
2022-09-17T16:04:35.895Z,98500.00
2022-09-17T16:07:11.834Z,98507.00
2022-09-17T16:09:53.558Z,98510.00
2022-09-17T16:12:28.878Z,98512.00
2022-09-17T16:15:01.426Z,98514.00
2022-09-17T16:17:44.163Z,98514.00
2022-09-17T16:20:26.605Z,98507.00
2022-09-17T16:22:55.040Z,98518.00
2022-09-17T16:25:28.312Z,98524.00
2022-09-17T16:28:10.038Z,98527.00
2022-09-17T16:30:38.429Z,98526.00
2022-09-17T16:33:06.856Z,98536.00
2022-09-17T16:35:34.205Z,98521.00
2022-09-17T16:38:02.229Z,98530.00
2022-09-17T16:40:31.602Z,98535.00
2022-09-17T16:43:03.609Z,98534.00
2022-09-17T16:45:32.046Z,98535.00
2022-09-17T16:47:59.332Z,98545.00
2022-09-17T16:50:28.456Z,98550.00
2022-09-17T16:52:55.783Z,98552.00
2022-09-17T16:55:23.160Z,98548.00
2022-09-17T16:57:50.864Z,98547.00
2022-09-17T17:00:21.173Z,98547.00
2022-09-17T17:02:58.487Z,98559.00
2022-09-17T17:05:27.605Z,98554.00
2022-09-17T17:07:56.093Z,98554.00
2022-09-17T17:10:27.672Z,98552.00
2022-09-17T17:12:58.117Z,98556.00
2022-09-17T17:15:25.540Z,98557.00
2022-09-17T17:17:53.980Z,98552.00
2022-09-17T17:20:21.370Z,98546.00
2022-09-17T17:22:50.658Z,98561.00
2022-09-17T17:25:18.609Z,98561.00
2022-09-17T17:27:46.147Z,98560.00
2022-09-17T17:30:17.348Z,98554.00
2022-09-17T17:32:51.564Z,98562.00
2022-09-17T17:35:20.572Z,98555.00
2022-09-17T17:37:48.499Z,98562.00
2022-09-17T17:40:16.212Z,98555.00
2022-09-17T17:42:44.288Z,98555.00
2022-09-17T17:45:12.092Z,98558.00
2022-09-17T17:47:39.587Z,98563.00
2022-09-17T17:50:08.649Z,98546.00
2022-09-17T17:52:38.369Z,98571.00
2022-09-17T17:55:07.428Z,98573.00
2022-09-17T17:57:34.722Z,98581.00
2022-09-17T18:00:03.964Z,98589.00
2022-09-17T18:02:31.441Z,98585.00
2022-09-17T18:05:03.389Z,98600.00
2022-09-17T18:07:32.702Z,98593.00
2022-09-17T18:10:00.291Z,98592.00
2022-09-17T18:12:27.662Z,98596.00
2022-09-17T18:14:58.162Z,98605.00
2022-09-17T18:17:25.624Z,98604.00
2022-09-17T18:19:52.893Z,98610.00
2022-09-17T18:22:20.221Z,98614.00
2022-09-17T18:24:47.512Z,98615.00
2022-09-17T18:27:15.339Z,98618.00
2022-09-17T18:29:42.621Z,98622.00
2022-09-17T18:32:10.309Z,98623.00
2022-09-17T18:34:37.850Z,98631.00
2022-09-17T18:37:05.133Z,98631.00
2022-09-17T18:39:57.551Z,98637.00
2022-09-17T18:42:20.398Z,98639.00
2022-09-17T18:44:49.021Z,98634.00
2022-09-17T18:47:17.419Z,98654.00
2022-09-17T18:49:44.928Z,98654.00
2022-09-17T18:52:12.446Z,98656.00
2022-09-17T18:54:39.735Z,98661.00
2022-09-17T18:57:08.036Z,98671.00
2022-09-17T18:59:35.293Z,98669.00
2022-09-17T19:02:02.605Z,98671.00
2022-09-17T19:04:30.686Z,98666.00
2022-09-17T19:06:58.204Z,98680.00
2022-09-17T19:09:25.466Z,98669.00
2022-09-17T19:11:52.969Z,98649.00
2022-09-17T19:14:20.492Z,98677.00
2022-09-17T19:16:49.648Z,98669.00
2022-09-17T19:19:17.065Z,98666.00
2022-09-17T19:21:44.530Z,98666.00
2022-09-17T19:24:11.864Z,98674.00
2022-09-17T19:26:39.520Z,98676.00
2022-09-17T19:29:08.379Z,98676.00
2022-09-17T19:31:35.766Z,98675.00
2022-09-17T19:34:03.487Z,98679.00
2022-09-17T19:36:30.920Z,98666.00
2022-09-17T19:38:58.825Z,98670.00
2022-09-17T19:41:26.350Z,98671.00
2022-09-17T19:43:56.779Z,98679.00
2022-09-17T19:46:26.484Z,98677.00
2022-09-17T19:48:57.583Z,98672.00
2022-09-17T19:51:31.885Z,98680.00
2022-09-17T19:53:59.137Z,98686.00
2022-09-17T19:56:28.069Z,98683.00
2022-09-17T19:58:56.708Z,98686.00
2022-09-17T20:01:24.181Z,98691.00
2022-09-17T20:03:53.155Z,98701.00
2022-09-17T20:06:22.473Z,98690.00
2022-09-17T20:08:55.330Z,98696.00
2022-09-17T20:11:25.250Z,98695.00
2022-09-17T20:14:06.620Z,98691.00
2022-09-17T20:16:37.271Z,98695.00
2022-09-17T20:19:07.469Z,98694.00
2022-09-17T20:21:34.909Z,98692.00
2022-09-17T20:24:02.627Z,98694.00
2022-09-17T20:26:29.897Z,98697.00
2022-09-17T20:28:57.296Z,98700.00
2022-09-17T20:31:29.453Z,98688.00
2022-09-17T20:34:03.047Z,98696.00
2022-09-17T20:36:36.777Z,98690.00
2022-09-17T20:39:12.205Z,98697.00
2022-09-17T20:41:42.269Z,98693.00
2022-09-17T20:44:09.655Z,98698.00
2022-09-17T20:46:36.956Z,98697.00
2022-09-17T20:49:05.646Z,98698.00
2022-09-17T20:51:33.893Z,98701.00
2022-09-17T20:54:02.035Z,98701.00
2022-09-17T20:56:33.869Z,98694.00
2022-09-17T20:59:15.037Z,98706.00
2022-09-17T21:01:49.651Z,98700.00
2022-09-17T21:04:21.942Z,98704.00
2022-09-17T21:06:53.501Z,98697.00
2022-09-17T21:09:20.914Z,98707.00
2022-09-17T21:11:49.456Z,98706.00
2022-09-17T21:14:18.123Z,98710.00
2022-09-17T21:16:46.710Z,98701.00
2022-09-17T21:19:16.518Z,98706.00
2022-09-17T21:21:44.714Z,98711.00
2022-09-17T21:24:12.316Z,98706.00
2022-09-17T21:26:39.783Z,98703.00
2022-09-17T21:29:07.162Z,98703.00
2022-09-17T21:31:37.057Z,98705.00
2022-09-17T21:34:11.797Z,98704.00
2022-09-17T21:36:44.283Z,98707.00
2022-09-17T21:39:16.817Z,98710.00
2022-09-17T21:41:47.725Z,98715.00
2022-09-17T21:44:15.909Z,98710.00
2022-09-17T21:46:43.421Z,98713.00
2022-09-17T21:49:12.995Z,98711.00
2022-09-17T21:51:42.841Z,98705.00
2022-09-17T21:54:15.916Z,98705.00
2022-09-17T21:56:45.248Z,98712.00
2022-09-17T21:59:15.535Z,98712.00
2022-09-17T22:01:50.843Z,98711.00
2022-09-17T22:04:22.228Z,98711.00
2022-09-17T22:06:50.512Z,98706.00
2022-09-17T22:09:23.778Z,98715.00
2022-09-17T22:11:54.033Z,98713.00
2022-09-17T22:14:24.797Z,98720.00
2022-09-17T22:16:57.003Z,98715.00
2022-09-17T22:19:26.154Z,98717.00
2022-09-17T22:21:56.032Z,98719.00
2022-09-17T22:24:24.409Z,98714.00
2022-09-17T22:26:57.694Z,98718.00
2022-09-17T22:29:27.780Z,98712.00
2022-09-17T22:31:55.304Z,98713.00
2022-09-17T22:34:25.247Z,98715.00
2022-09-17T22:36:52.757Z,98710.00
2022-09-17T22:39:23.391Z,98709.00
2022-09-17T22:41:50.997Z,98721.00
2022-09-17T22:44:20.685Z,98705.00
2022-09-17T22:46:51.640Z,98702.00
2022-09-17T22:49:20.262Z,98696.00
2022-09-17T22:51:48.208Z,98699.00
2022-09-17T22:54:19.547Z,98698.00
2022-09-17T22:56:48.820Z,98707.00
2022-09-17T22:59:18.010Z,98696.00
2022-09-17T23:01:45.435Z,98698.00
2022-09-17T23:04:12.804Z,98694.00
2022-09-17T23:06:44.264Z,98699.00
2022-09-17T23:09:13.938Z,98694.00
2022-09-17T23:11:41.725Z,98685.00
2022-09-17T23:14:12.973Z,98684.00
2022-09-17T23:16:46.801Z,98686.00
2022-09-17T23:19:17.888Z,98698.00
2022-09-17T23:21:47.991Z,98688.00
2022-09-17T23:24:21.943Z,98693.00
2022-09-17T23:26:50.525Z,98691.00
2022-09-17T23:29:18.623Z,98686.00
2022-09-17T23:31:45.972Z,98690.00
2022-09-17T23:34:13.594Z,98689.00
2022-09-17T23:36:41.029Z,98687.00
2022-09-17T23:39:11.554Z,98692.00
2022-09-17T23:41:43.436Z,98696.00
2022-09-17T23:44:15.831Z,98698.00
2022-09-17T23:46:45.826Z,98692.00
2022-09-17T23:49:14.498Z,98690.00
2022-09-17T23:51:42.540Z,98679.00
2022-09-17T23:54:11.154Z,98698.00
2022-09-17T23:56:38.553Z,98696.00
2022-09-17T23:59:07.332Z,98689.00
